Time;durP1;ratioP1;P1;durP2;ratioP2;P2;SDS_P1;SDS_P2;PMS_P1;PMS_P2;Temp;Humidity;BMP_temperature;BMP_pressure;BME280_temperature;BME280_humidity;BME280_pressure;Samples;Min_cycle;Max_cycle;Signal;HPM_P1;HPM_P2
2022/01/06 00:01:52;;;;;;;0.82;0.82;;;;;;;4.01;86.32;100884.34;5035674;28;20072;-80
2022/01/06 00:04:23;;;;;;;1.63;1.52;;;;;;;4.16;85.85;100885.28;5067854;28;20044;-81
2022/01/06 00:06:53;;;;;;;0.60;0.60;;;;;;;4.12;86.03;100886.13;5046060;29;20032;-81
2022/01/06 00:09:24;;;;;;;0.88;0.82;;;;;;;4.10;85.83;100886.97;5044412;29;20036;-81
2022/01/06 00:11:54;;;;;;;0.50;0.50;;;;;;;4.24;85.47;100886.16;5130440;28;20024;-81
2022/01/06 00:25:26;;;;;;;0.70;0.70;;;;;;;4.17;85.13;100898.25;5066177;28;20037;-81
2022/01/06 00:27:56;;;;;;;0.50;0.50;;;;;;;4.19;85.04;100903.44;5065322;29;20035;-82
2022/01/06 00:30:28;;;;;;;0.50;0.50;;;;;;;4.13;85.35;100900.84;5058731;28;20744;-82
2022/01/06 00:32:59;;;;;;;0.60;0.60;;;;;;;4.10;85.41;100909.50;5078855;29;20032;-81
2022/01/06 00:35:32;;;;;;;0.98;0.98;;;;;;;4.21;84.72;100913.00;5066056;29;20053;-81
2022/01/06 00:38:06;;;;;;;0.50;0.50;;;;;;;4.16;84.95;100919.03;5068111;28;20257;-81
2022/01/06 00:40:38;;;;;;;0.80;0.80;;;;;;;4.07;85.61;100922.47;5032834;28;20040;-81
2022/01/06 00:43:10;;;;;;;0.40;0.40;;;;;;;4.14;85.60;100929.41;5055750;29;20037;-81
2022/01/06 00:45:44;;;;;;;1.60;1.50;;;;;;;4.07;84.76;100925.94;5046874;28;20539;-81
2022/01/06 00:48:25;;;;;;;0.50;0.50;;;;;;;4.12;84.69;100930.28;5069565;28;20225;-82
2022/01/06 00:50:56;;;;;;;1.38;1.02;;;;;;;4.16;84.47;100939.81;5069486;28;20048;-81
2022/01/06 00:53:29;;;;;;;0.88;0.88;;;;;;;4.06;84.37;100942.38;5044704;28;20029;-81
2022/01/06 00:56:00;;;;;;;1.08;1.08;;;;;;;4.07;85.10;100944.13;5034003;29;20067;-81
2022/01/06 00:58:33;;;;;;;1.38;1.30;;;;;;;4.06;85.03;100950.16;5045676;29;20045;-82
2022/01/06 01:01:04;;;;;;;2.72;1.73;;;;;;;4.06;85.06;100950.16;5131108;28;20048;-82
2022/01/06 01:03:34;;;;;;;0.60;0.60;;;;;;;4.07;85.13;100940.63;5058268;28;20366;-82
2022/01/06 01:06:05;;;;;;;0.60;0.60;;;;;;;4.00;85.17;100937.19;5050659;28;20050;-81
2022/01/06 01:08:38;;;;;;;1.08;1.08;;;;;;;4.14;84.76;100944.13;5054509;29;20061;-81
2022/01/06 01:11:08;;;;;;;2.93;1.40;;;;;;;4.02;84.87;100952.75;5072041;28;20060;-81
2022/01/06 01:13:54;;;;;;;0.60;0.60;;;;;;;4.02;84.53;100953.59;5066753;29;20297;-81
2022/01/06 01:16:31;;;;;;;0.40;0.40;;;;;;;4.06;84.62;100950.16;5070256;28;20045;-81
2022/01/06 01:19:03;;;;;;;3.20;0.45;;;;;;;4.10;84.00;100951.91;5069655;28;20578;-82
2022/01/06 01:21:34;;;;;;;0.50;0.50;;;;;;;4.06;84.05;100950.16;5046354;29;20460;-82
2022/01/06 01:24:04;;;;;;;0.50;0.50;;;;;;;4.10;84.13;100957.09;5128203;28;20041;-81
2022/01/06 01:26:35;;;;;;;1.45;1.38;;;;;;;4.14;84.79;100957.13;5068143;28;20036;-81
2022/01/06 01:29:13;;;;;;;0.40;0.40;;;;;;;4.20;84.11;100946.75;5062216;28;20064;-81
2022/01/06 01:31:48;;;;;;;0.68;0.68;;;;;;;4.06;83.75;100947.56;5065668;28;20028;-81
2022/01/06 01:34:27;;;;;;;0.40;0.40;;;;;;;3.99;84.08;100955.31;5027005;28;20043;-81
2022/01/06 01:36:58;;;;;;;0.75;0.75;;;;;;;3.86;84.34;100949.22;5068417;28;20114;-81
2022/01/06 01:39:28;;;;;;;1.20;1.20;;;;;;;3.99;84.43;100948.41;5044596;28;20572;-82
2022/01/06 01:41:59;;;;;;;1.08;1.08;;;;;;;3.90;84.83;100959.63;5053439;29;20104;-82
2022/01/06 01:44:29;;;;;;;0.52;0.52;;;;;;;3.97;83.94;100960.53;5063002;29;20276;-82
2022/01/06 01:47:03;;;;;;;0.57;0.57;;;;;;;3.94;83.98;100961.38;5067923;28;20025;-81
2022/01/06 01:49:48;;;;;;;;;;;;;;;3.97;83.63;100967.47;5039741;28;20044;-82
2022/01/06 01:52:18;;;;;;;0.75;0.75;;;;;;;4.03;83.52;100970.91;5059954;29;20457;-82
2022/01/06 01:54:49;;;;;;;0.50;0.50;;;;;;;3.98;83.42;100970.06;5144552;28;20377;-82
2022/01/06 01:57:22;;;;;;;0.93;0.93;;;;;;;4.06;84.01;100973.53;5048948;29;20044;-82
2022/01/06 01:59:53;;;;;;;0.47;0.47;;;;;;;4.03;83.51;100986.50;5048202;28;20037;-82
2022/01/06 02:02:24;;;;;;;0.40;0.40;;;;;;;4.06;83.62;100978.75;5048687;28;20032;-82
2022/01/06 02:04:54;;;;;;;0.50;0.50;;;;;;;3.98;83.88;100988.22;5060915;29;20511;-82
2022/01/06 02:07:25;;;;;;;0.43;0.43;;;;;;;3.95;83.30;100993.38;5073032;28;20540;-81
2022/01/06 02:09:56;;;;;;;0.50;0.50;;;;;;;4.00;83.52;100991.72;5064368;29;20048;-82
2022/01/06 02:12:30;;;;;;;0.40;0.40;;;;;;;4.04;83.21;100997.78;5055882;28;20123;-82
2022/01/06 02:15:07;;;;;;;0.40;0.40;;;;;;;3.85;83.73;100996.78;5070179;29;20051;-81
2022/01/06 02:17:41;;;;;;;1.00;0.95;;;;;;;3.84;83.40;100985.56;5066576;28;20099;-81
2022/01/06 02:20:15;;;;;;;0.40;0.40;;;;;;;3.82;84.02;100992.47;5082671;28;20056;-81
2022/01/06 02:22:47;;;;;;;0.70;0.70;;;;;;;3.95;83.47;100983.00;5049059;29;20043;-81
2022/01/06 02:25:22;;;;;;;0.32;0.32;;;;;;;3.93;83.97;100992.50;5034959;29;20044;-81
2022/01/06 02:27:54;;;;;;;0.40;0.40;;;;;;;3.96;83.07;100989.94;5051403;29;20086;-81
2022/01/06 02:30:32;;;;;;;1.30;1.30;;;;;;;3.95;83.91;100993.38;5047522;28;20079;-81
2022/01/06 02:33:05;;;;;;;0.57;0.57;;;;;;;3.77;84.34;101000.22;5053325;28;20063;-81
2022/01/06 02:35:36;;;;;;;0.40;0.40;;;;;;;3.84;83.87;100995.94;5048552;29;20097;-81
2022/01/06 02:38:06;;;;;;;1.13;1.02;;;;;;;3.84;83.45;100995.09;5049216;28;20108;-81
2022/01/06 02:40:37;;;;;;;0.40;0.40;;;;;;;3.81;84.06;101000.25;5053976;28;20048;-81
2022/01/06 02:43:08;;;;;;;0.55;0.55;;;;;;;3.85;83.33;101007.19;5050801;28;20055;-81
2022/01/06 02:45:42;;;;;;;0.50;0.50;;;;;;;3.92;83.52;101014.16;5061839;29;20041;-81
2022/01/06 02:48:14;;;;;;;0.47;0.47;;;;;;;3.78;83.62;101014.94;5049154;29;20036;-81
2022/01/06 02:50:49;;;;;;;0.60;0.60;;;;;;;3.90;83.04;101008.09;5049464;28;20071;-82
2022/01/06 02:53:20;;;;;;;0.40;0.40;;;;;;;3.83;83.39;101011.53;5065934;29;20032;-80
2022/01/06 02:55:53;;;;;;;0.88;0.88;;;;;;;3.88;82.78;101004.59;5030372;28;20567;-81
2022/01/06 02:58:29;;;;;;;0.83;0.83;;;;;;;3.72;83.91;101014.91;5051176;28;20074;-81
2022/01/06 03:00:59;;;;;;;0.40;0.40;;;;;;;3.61;83.77;101013.97;5050834;28;20292;-80
2022/01/06 03:03:30;;;;;;;0.40;0.40;;;;;;;3.74;83.72;101021.00;5068862;29;20036;-81
2022/01/06 03:06:00;;;;;;;0.50;0.50;;;;;;;3.80;83.79;101014.09;5066561;29;20119;-81
2022/01/06 03:08:30;;;;;;;0.40;0.40;;;;;;;3.83;82.76;101022.75;5053915;29;20044;-81
2022/01/06 03:11:04;;;;;;;8.48;4.25;;;;;;;3.82;83.64;101023.59;5066825;29;20044;-81
2022/01/06 03:13:37;;;;;;;1.05;1.05;;;;;;;3.90;83.20;101031.47;5066033;28;20028;-81
2022/01/06 03:16:08;;;;;;;3.00;0.85;;;;;;;3.80;83.72;101030.53;5025401;28;20091;-82
2022/01/06 03:18:38;;;;;;;0.50;0.50;;;;;;;3.36;83.54;101031.97;5084578;28;20032;-81
2022/01/06 03:21:12;;;;;;;0.60;0.60;;;;;;;3.57;84.05;101032.97;5047566;28;20365;-81
2022/01/06 03:23:43;;;;;;;0.40;0.40;;;;;;;3.59;83.28;101028.69;5047098;29;20041;-81
2022/01/06 03:26:13;;;;;;;0.93;0.93;;;;;;;3.57;83.54;101035.59;5062771;28;20505;-81
2022/01/06 03:28:44;;;;;;;1.05;1.05;;;;;;;3.55;83.29;101029.50;5065012;29;20036;-82
2022/01/06 03:31:14;;;;;;;0.60;0.60;;;;;;;3.67;83.26;101033.91;5050805;29;20040;-82
2022/01/06 03:33:47;;;;;;;0.50;0.50;;;;;;;3.57;83.38;101028.66;5044149;29;20519;-82
2022/01/06 03:36:17;;;;;;;0.95;0.95;;;;;;;3.69;82.90;101030.44;5047100;29;20033;-81
2022/01/06 03:38:51;;;;;;;1.35;1.25;;;;;;;3.65;82.55;101036.50;5052906;28;20040;-81
2022/01/06 03:41:21;;;;;;;;;;;;;;;3.71;82.50;101031.34;5056510;28;20037;-81
2022/01/06 03:43:54;;;;;;;3.40;1.70;;;;;;;3.68;83.05;101044.28;5074267;29;19966;-81
2022/01/06 03:46:25;;;;;;;;;;;;;;;3.66;82.77;101043.44;5080769;28;20043;-82
2022/01/06 03:48:56;;;;;;;0.40;0.40;;;;;;;3.74;82.57;101044.34;5088347;28;19919;-81
2022/01/06 03:51:26;;;;;;;19.27;2.58;;;;;;;3.67;83.08;101049.47;5063396;28;20071;-82
2022/01/06 03:53:57;;;;;;;0.50;0.50;;;;;;;3.74;82.51;101052.13;5139287;28;20033;-81
2022/01/06 03:56:27;;;;;;;0.65;0.65;;;;;;;3.65;82.84;101049.47;5051783;29;20028;-82
2022/01/06 03:58:58;;;;;;;1.23;0.98;;;;;;;3.66;82.61;101048.63;5066552;28;20345;-82
2022/01/06 04:01:29;;;;;;;0.65;0.65;;;;;;;3.52;82.88;101050.22;5067718;28;20032;-81
2022/01/06 04:04:00;;;;;;;0.55;0.55;;;;;;;3.50;81.58;101052.81;5064005;29;20038;-81
2022/01/06 04:06:31;;;;;;;0.40;0.40;;;;;;;3.49;82.40;101055.41;5050932;29;20028;-82
2022/01/06 04:09:02;;;;;;;17.73;1.88;;;;;;;3.50;82.98;101057.16;5130393;28;20040;-81
2022/01/06 04:11:33;;;;;;;0.50;0.50;;;;;;;3.43;82.53;101056.22;5065548;28;20024;-81
2022/01/06 04:14:03;;;;;;;0.40;0.40;;;;;;;3.58;83.02;101058.09;5061457;29;20033;-81
2022/01/06 04:16:36;;;;;;;2.47;2.28;;;;;;;3.45;82.48;101065.75;5067644;28;20117;-82
2022/01/06 04:19:07;;;;;;;3.20;2.40;;;;;;;3.50;82.49;101068.38;5032106;29;20035;-82
2022/01/06 04:21:38;;;;;;;1.27;1.27;;;;;;;3.42;82.71;101073.53;5034615;29;20029;-81
2022/01/06 04:24:11;;;;;;;0.50;0.50;;;;;;;3.43;82.26;101077.84;5044525;28;20075;-82
2022/01/06 04:26:41;;;;;;;0.50;0.50;;;;;;;3.44;82.40;101084.75;5075450;29;20036;-81
2022/01/06 04:29:12;;;;;;;1.33;1.25;;;;;;;3.50;81.96;101077.91;5048801;29;20135;-81
2022/01/06 04:31:42;;;;;;;2.60;1.58;;;;;;;3.45;82.79;101077.88;5035886;29;20440;-82
2022/01/06 04:34:16;;;;;;;0.52;0.52;;;;;;;3.46;83.04;101083.06;5045156;29;20032;-82
2022/01/06 04:36:51;;;;;;;0.45;0.45;;;;;;;3.34;82.48;101082.09;5032802;29;20567;-82
2022/01/06 04:39:22;;;;;;;0.68;0.68;;;;;;;3.33;82.29;101082.94;5043882;29;20068;-82
2022/01/06 04:41:53;;;;;;;0.93;0.93;;;;;;;3.34;82.82;101085.56;5143959;28;20037;-82
2022/01/06 04:44:26;;;;;;;0.63;0.63;;;;;;;3.39;82.30;101080.41;5046273;29;20041;-82
2022/01/06 04:46:56;;;;;;;0.60;0.60;;;;;;;3.43;82.72;101085.63;5080863;28;20058;-81
2022/01/06 04:49:27;;;;;;;0.50;0.50;;;;;;;3.50;82.64;101098.66;5066369;28;20040;-81
2022/01/06 04:51:57;;;;;;;1.42;1.33;;;;;;;3.36;82.40;101094.22;5148312;28;20689;-81
2022/01/06 04:54:28;;;;;;;0.77;0.77;;;;;;;3.43;82.09;101096.00;5026845;28;20041;-82
2022/01/06 04:56:58;;;;;;;0.32;0.32;;;;;;;3.38;83.24;101100.28;5064981;28;20397;-82
2022/01/06 04:59:29;;;;;;;0.63;0.63;;;;;;;3.49;82.65;101102.13;5032658;29;20060;-81
2022/01/06 05:01:59;;;;;;;0.57;0.57;;;;;;;3.50;82.06;101106.44;5045491;28;20467;-81
2022/01/06 05:04:30;;;;;;;0.90;0.90;;;;;;;3.45;81.79;101112.44;5041533;29;20041;-81
2022/01/06 05:07:01;;;;;;;0.80;0.80;;;;;;;3.46;82.02;101110.75;5032293;29;20035;-81
2022/01/06 05:09:31;;;;;;;2.20;0.93;;;;;;;3.54;82.52;101119.47;5058462;28;20037;-81
2022/01/06 05:12:02;;;;;;;0.50;0.50;;;;;;;3.24;82.33;101120.91;5127307;28;20033;-82
2022/01/06 05:14:33;;;;;;;0.43;0.43;;;;;;;3.43;82.27;101119.34;5053201;29;20044;-81
2022/01/06 05:17:04;;;;;;;0.45;0.45;;;;;;;3.49;82.27;101128.06;5058911;28;20040;-81
2022/01/06 05:19:35;;;;;;;0.60;0.60;;;;;;;3.50;81.32;101119.41;5040616;28;20404;-81
2022/01/06 05:22:08;;;;;;;0.55;0.55;;;;;;;3.43;81.93;101124.53;5042368;29;20131;-81
2022/01/06 05:24:38;;;;;;;0.80;0.80;;;;;;;3.33;81.76;101133.09;5050819;28;20035;-81
2022/01/06 05:27:10;;;;;;;0.40;0.40;;;;;;;3.23;83.10;101132.13;5064565;28;20036;-81
2022/01/06 05:29:41;;;;;;;0.40;0.40;;;;;;;3.31;82.99;101125.28;5062045;29;20054;-80
2022/01/06 05:32:12;;;;;;;0.57;0.57;;;;;;;3.31;81.96;101129.63;5062082;29;20024;-80
2022/01/06 05:34:42;;;;;;;0.60;0.60;;;;;;;2.99;83.30;101135.34;5055249;28;20179;-80
2022/01/06 05:37:15;;;;;;;0.40;0.40;;;;;;;2.93;83.19;101138.75;5064032;29;20117;-80
2022/01/06 05:39:46;;;;;;;0.47;0.47;;;;;;;3.13;82.68;101133.78;5051863;28;20125;-81
2022/01/06 05:42:16;;;;;;;1.70;1.60;;;;;;;3.07;82.87;101138.91;5052152;28;20099;-81
2022/01/06 05:44:47;;;;;;;3.72;1.40;;;;;;;3.14;83.16;101138.09;5064693;29;20040;-82
2022/01/06 05:47:17;;;;;;;0.55;0.55;;;;;;;3.10;83.21;101140.66;5090766;28;20024;-82
2022/01/06 05:49:48;;;;;;;0.50;0.50;;;;;;;3.20;83.16;101141.59;5088339;28;20117;-81
2022/01/06 05:52:18;;;;;;;0.82;0.82;;;;;;;3.29;82.45;101146.88;5090789;28;20043;-81
2022/01/06 05:54:49;;;;;;;1.77;1.67;;;;;;;3.27;82.24;101158.97;5048900;29;20124;-81
2022/01/06 05:57:20;;;;;;;0.43;0.43;;;;;;;3.21;82.42;101156.31;5053930;28;20031;-81
2022/01/06 05:59:50;;;;;;;0.75;0.75;;;;;;;3.24;82.49;101164.13;5147589;28;20215;-81
2022/01/06 06:02:21;;;;;;;0.50;0.50;;;;;;;3.06;82.97;101167.41;5069015;28;20060;-81
2022/01/06 06:04:52;;;;;;;0.30;0.30;;;;;;;3.10;83.30;101172.63;5070219;28;20045;-81
2022/01/06 06:07:23;;;;;;;0.47;0.47;;;;;;;2.89;82.92;101181.06;5067105;29;20028;-81
2022/01/06 06:09:54;;;;;;;0.50;0.50;;;;;;;3.09;82.77;101185.56;5068369;29;20356;-81
2022/01/06 06:12:24;;;;;;;0.60;0.60;;;;;;;3.02;83.25;101179.44;5061799;28;20108;-81
2022/01/06 06:14:55;;;;;;;0.80;0.80;;;;;;;3.05;82.22;101186.41;5047284;28;20078;-81
2022/01/06 06:17:25;;;;;;;0.60;0.60;;;;;;;3.05;83.22;101192.44;5071850;28;20105;-81
2022/01/06 06:19:56;;;;;;;1.13;1.13;;;;;;;3.15;82.93;101188.22;5068028;28;20095;-82
2022/01/06 06:22:26;;;;;;;1.67;1.48;;;;;;;3.17;82.59;101198.66;5055380;29;20032;-82
2022/01/06 06:24:57;;;;;;;0.75;0.75;;;;;;;3.14;83.54;101200.34;5043753;28;20036;-83
2022/01/06 06:27:27;;;;;;;1.15;1.15;;;;;;;3.01;82.77;101198.47;5067704;28;20067;-83
2022/01/06 06:29:58;;;;;;;0.98;0.98;;;;;;;3.04;83.51;101203.66;5041450;29;20048;-82
2022/01/06 06:32:33;;;;;;;0.50;0.50;;;;;;;2.75;83.90;101200.72;5052172;28;20030;-84
2022/01/06 06:35:04;;;;;;;0.65;0.65;;;;;;;2.95;84.13;101207.03;5062825;28;20299;-83
2022/01/06 06:37:35;;;;;;;0.50;0.50;;;;;;;2.96;83.69;101200.13;5129747;28;20033;-83
2022/01/06 06:40:06;;;;;;;0.75;0.73;;;;;;;2.79;84.58;101203.38;5029995;28;20598;-82
2022/01/06 06:42:38;;;;;;;0.80;0.80;;;;;;;2.87;83.41;101213.84;5055090;28;20544;-81
2022/01/06 06:45:09;;;;;;;1.63;1.52;;;;;;;2.96;83.43;101210.50;5051295;29;20043;-82
2022/01/06 06:47:43;;;;;;;2.10;1.60;;;;;;;2.90;83.38;101213.00;5082173;28;20028;-81
2022/01/06 06:50:16;;;;;;;;;;;;;;;2.95;83.36;101213.94;5153267;28;20063;-82
2022/01/06 06:52:47;;;;;;;0.47;0.47;;;;;;;2.99;83.48;101224.34;5072506;28;20388;-82
2022/01/06 06:55:17;;;;;;;0.65;0.65;;;;;;;3.04;83.43;101231.34;5051475;28;20048;-81
2022/01/06 06:57:48;;;;;;;1.75;1.60;;;;;;;2.72;84.02;101232.66;5050423;29;20041;-81
2022/01/06 07:00:18;;;;;;;0.40;0.40;;;;;;;2.86;84.19;101231.94;5052328;28;20044;-81
2022/01/06 07:02:49;;;;;;;1.27;1.17;;;;;;;2.98;83.81;101240.75;5064493;29;20043;-81
2022/01/06 07:05:20;;;;;;;1.25;1.15;;;;;;;3.00;83.53;101243.41;5051234;28;20257;-81
2022/01/06 07:07:51;;;;;;;1.15;1.15;;;;;;;3.09;83.70;101248.69;5149181;28;20040;-81
2022/01/06 07:10:22;;;;;;;0.50;0.50;;;;;;;2.92;83.88;101251.06;5068279;29;20055;-81
2022/01/06 07:12:52;;;;;;;0.93;0.93;;;;;;;3.04;83.41;101254.66;5075955;29;20067;-81
2022/01/06 07:15:27;;;;;;;0.40;0.40;;;;;;;3.01;83.42;101260.69;5065103;28;20051;-81
2022/01/06 07:17:57;;;;;;;0.82;0.82;;;;;;;3.10;82.95;101259.91;5050133;28;20404;-81
2022/01/06 07:20:28;;;;;;;0.98;0.80;;;;;;;2.86;84.15;101256.16;5075434;28;20084;-81
2022/01/06 07:22:58;;;;;;;1.88;1.70;;;;;;;2.89;84.52;101260.50;5063576;28;20509;-81
2022/01/06 07:25:29;;;;;;;0.70;0.70;;;;;;;3.08;83.52;101266.81;5061537;28;20531;-82
2022/01/06 07:27:59;;;;;;;0.50;0.50;;;;;;;2.85;83.86;101272.56;5035303;29;20470;-79
2022/01/06 07:30:31;;;;;;;0.60;0.60;;;;;;;3.09;83.65;101277.22;5048115;28;20040;-78
2022/01/06 07:33:02;;;;;;;0.50;0.50;;;;;;;3.01;83.27;101284.03;5061043;28;20052;-79
2022/01/06 07:35:33;;;;;;;0.55;0.55;;;;;;;3.02;83.78;101277.97;5058175;28;20044;-79
2022/01/06 07:38:03;;;;;;;1.15;1.10;;;;;;;3.11;83.86;101279.81;5072909;28;20405;-79
2022/01/06 07:40:34;;;;;;;1.08;1.08;;;;;;;3.19;83.18;101287.69;5027797;28;20076;-79
2022/01/06 07:43:05;;;;;;;0.47;0.47;;;;;;;3.17;83.15;101289.41;5025147;29;20043;-78
2022/01/06 07:45:36;;;;;;;0.50;0.50;;;;;;;3.23;83.06;101292.06;5044170;29;20047;-78
2022/01/06 07:48:15;;;;;;;4.03;1.40;;;;;;;2.80;84.39;101302.75;5080584;28;20401;-78
2022/01/06 07:50:49;;;;;;;1.42;1.33;;;;;;;2.96;83.68;101316.78;5064572;28;20041;-79
2022/01/06 07:53:19;;;;;;;0.63;0.55;;;;;;;3.06;83.22;101320.38;5049479;29;20102;-79
2022/01/06 07:55:50;;;;;;;0.70;0.70;;;;;;;2.98;84.35;101317.66;5123463;28;20506;-79
2022/01/06 07:58:28;;;;;;;0.77;0.77;;;;;;;3.01;83.67;101322.91;5034394;28;20040;-79
2022/01/06 08:01:04;;;;;;;2.35;1.45;;;;;;;2.94;84.42;101326.25;5029165;29;20048;-77
2022/01/06 08:03:34;;;;;;;0.63;0.63;;;;;;;3.04;83.48;101332.44;5072512;29;20033;-77
2022/01/06 08:06:05;;;;;;;0.40;0.40;;;;;;;3.14;83.18;101335.19;5068935;28;20494;-77
2022/01/06 08:08:36;;;;;;;0.50;0.50;;;;;;;3.04;84.25;101333.31;5055711;29;20102;-77
2022/01/06 08:11:06;;;;;;;0.75;0.75;;;;;;;2.99;84.13;101330.66;5029836;29;20048;-77
2022/01/06 08:13:37;;;;;;;6.75;1.65;;;;;;;3.05;83.64;101336.78;5057689;28;20115;-78
2022/01/06 08:16:08;;;;;;;0.55;0.55;;;;;;;3.04;83.55;101337.63;5056521;28;20142;-77
2022/01/06 08:18:38;;;;;;;0.95;0.95;;;;;;;2.95;84.08;101339.25;5059185;28;20032;-77
2022/01/06 08:21:09;;;;;;;2.92;1.58;;;;;;;2.94;84.23;101332.31;5040983;28;20068;-77
2022/01/06 08:23:39;;;;;;;0.70;0.70;;;;;;;2.77;84.75;101344.16;5061090;29;20433;-77
2022/01/06 08:26:10;;;;;;;1.10;1.10;;;;;;;2.84;84.66;101348.56;5057817;29;20117;-77
2022/01/06 08:28:41;;;;;;;0.30;0.30;;;;;;;2.88;84.78;101346.91;5059180;28;20048;-77
2022/01/06 08:31:13;;;;;;;4.05;1.15;;;;;;;2.92;84.28;101359.06;5051749;28;20105;-78
2022/01/06 08:33:45;;;;;;;1.95;1.85;;;;;;;3.02;84.00;101358.34;5064259;28;20198;-78
2022/01/06 08:36:16;;;;;;;9.32;2.63;;;;;;;2.88;84.34;101360.75;5059440;28;20532;-79
2022/01/06 08:38:47;;;;;;;2.47;1.40;;;;;;;3.09;83.96;101362.78;5079696;29;20563;-77
2022/01/06 08:41:18;;;;;;;1.25;1.25;;;;;;;3.13;83.77;101367.16;5056415;28;20044;-78
2022/01/06 08:43:48;;;;;;;0.82;0.82;;;;;;;3.11;83.44;101370.56;5063154;29;20568;-78
2022/01/06 08:46:19;;;;;;;0.60;0.60;;;;;;;3.05;83.89;101366.16;5129391;28;20724;-77
2022/01/06 08:48:49;;;;;;;0.70;0.70;;;;;;;2.98;84.11;101374.72;5058923;28;20080;-78
2022/01/06 08:51:20;;;;;;;1.58;1.48;;;;;;;2.85;84.50;101372.78;5044765;28;20052;-77
2022/01/06 08:53:50;;;;;;;13.35;1.52;;;;;;;2.77;84.76;101376.09;5058998;29;20040;-79
2022/01/06 08:56:21;;;;;;;1.10;1.10;;;;;;;2.83;85.03;101378.81;5057995;28;20567;-78
2022/01/06 08:58:51;;;;;;;1.15;1.15;;;;;;;2.81;85.80;101383.09;5055591;28;20033;-78
2022/01/06 09:01:25;;;;;;;1.00;1.00;;;;;;;2.80;85.75;101383.94;5064192;28;20531;-77
2022/01/06 09:03:55;;;;;;;;;;;;;;;2.74;85.84;101378.69;5062458;28;20029;-78
2022/01/06 09:06:26;;;;;;;1.70;1.60;;;;;;;2.75;85.76;101380.44;5058098;29;19926;-77
2022/01/06 09:08:57;;;;;;;0.43;0.43;;;;;;;2.76;85.71;101378.69;5069074;28;20044;-79
2022/01/06 09:11:27;;;;;;;1.48;1.38;;;;;;;2.79;86.21;101384.78;5053339;28;20517;-77
2022/01/06 09:13:58;;;;;;;1.55;1.45;;;;;;;2.70;86.26;101387.22;5041875;29;20039;-77
2022/01/06 09:16:28;;;;;;;2.72;1.58;;;;;;;2.76;86.57;101394.25;5059421;28;20047;-77
2022/01/06 09:18:59;;;;;;;0.50;0.50;;;;;;;2.86;86.60;101384.88;5068360;28;20584;-77
2022/01/06 09:21:29;;;;;;;1.10;1.08;;;;;;;2.83;85.57;101391.78;5045713;29;20044;-79
2022/01/06 09:24:01;;;;;;;2.05;1.58;;;;;;;2.81;86.29;101385.69;5052216;28;20042;-78
2022/01/06 09:26:34;;;;;;;2.70;2.50;;;;;;;2.82;85.38;101395.22;5046513;29;20040;-78
2022/01/06 09:29:08;;;;;;;0.60;0.60;;;;;;;2.83;86.36;101389.19;5081575;29;20083;-78
2022/01/06 09:31:41;;;;;;;2.50;2.33;;;;;;;2.90;86.00;101399.66;5063423;29;20497;-79
2022/01/06 09:34:11;;;;;;;0.50;0.50;;;;;;;2.87;86.22;101397.00;5057372;28;20413;-78
2022/01/06 09:36:42;;;;;;;0.50;0.50;;;;;;;2.87;85.66;101397.88;5048211;29;20037;-78
2022/01/06 09:39:13;;;;;;;1.42;1.40;;;;;;;2.97;85.56;101398.88;5061326;29;20020;-77
2022/01/06 09:41:44;;;;;;;0.65;0.65;;;;;;;3.01;85.43;101395.50;5061685;28;20032;-78
2022/01/06 09:44:15;;;;;;;3.40;1.05;;;;;;;2.95;85.85;101400.56;5049688;28;20111;-78
2022/01/06 09:46:46;;;;;;;0.85;0.85;;;;;;;3.06;86.13;101404.22;5082912;28;20062;-77
2022/01/06 09:49:16;;;;;;;0.70;0.70;;;;;;;3.03;86.29;101396.38;5091851;28;20040;-79
2022/01/06 09:51:47;;;;;;;0.90;0.90;;;;;;;3.02;85.60;101397.22;5141692;28;20060;-78
2022/01/06 09:54:18;;;;;;;2.38;2.20;;;;;;;3.05;85.24;101405.06;5059896;28;20035;-78
2022/01/06 09:56:48;;;;;;;0.30;0.30;;;;;;;3.13;85.91;101406.03;5032300;28;20127;-78
2022/01/06 09:59:19;;;;;;;0.77;0.77;;;;;;;3.12;85.58;101404.28;5041941;29;20392;-79
2022/01/06 10:01:49;;;;;;;1.45;1.42;;;;;;;3.15;85.73;101406.06;5061666;29;20032;-79
2022/01/06 10:04:27;;;;;;;0.73;0.73;;;;;;;3.23;85.26;101408.78;5046231;28;20033;-79
2022/01/06 10:06:59;;;;;;;0.60;0.60;;;;;;;3.24;85.46;101408.78;5132510;28;20476;-79
2022/01/06 10:09:33;;;;;;;0.65;0.65;;;;;;;3.20;85.28;101411.31;5030280;29;20055;-77
2022/01/06 10:12:08;;;;;;;3.80;2.38;;;;;;;3.35;84.89;101415.84;5050955;29;20943;-79
2022/01/06 10:14:45;;;;;;;0.50;0.50;;;;;;;3.38;85.31;101414.16;5063932;29;20071;-78
2022/01/06 10:17:33;;;;;;;1.33;1.00;;;;;;;3.45;85.61;101417.72;5127425;28;20484;-79
2022/01/06 10:20:12;;;;;;;5.00;3.13;;;;;;;3.52;85.25;101424.75;5072430;28;20058;-78
2022/01/06 10:22:48;;;;;;;0.60;0.60;;;;;;;3.39;84.92;101412.47;5045922;28;20040;-79
2022/01/06 10:25:22;;;;;;;0.75;0.75;;;;;;;3.42;85.43;101409.91;5059987;28;20090;-79
2022/01/06 10:27:56;;;;;;;4.38;1.90;;;;;;;3.46;85.09;101420.34;5058378;29;20517;-78
2022/01/06 10:30:30;;;;;;;0.70;0.70;;;;;;;3.42;85.54;101415.09;5074493;28;20040;-78
2022/01/06 10:33:01;;;;;;;0.73;0.73;;;;;;;3.43;85.37;101415.09;5044174;29;20078;-81
2022/01/06 10:35:31;;;;;;;0.40;0.40;;;;;;;3.38;85.74;101411.56;5031460;29;20044;-78
2022/01/06 10:38:02;;;;;;;0.98;0.98;;;;;;;3.44;85.92;101408.19;5044847;29;20038;-78
2022/01/06 10:40:32;;;;;;;0.50;0.50;;;;;;;3.54;86.15;101412.66;5057137;28;20041;-79
2022/01/06 10:43:05;;;;;;;2.25;2.05;;;;;;;3.54;85.98;101404.00;5125049;28;20048;-78
2022/01/06 10:45:36;;;;;;;1.15;1.15;;;;;;;3.53;85.58;101410.03;5033074;28;20052;-79
2022/01/06 10:48:07;;;;;;;0.73;0.73;;;;;;;3.52;86.62;101413.47;5077148;28;20040;-79
2022/01/06 10:50:39;;;;;;;1.58;1.13;;;;;;;3.56;86.06;101416.13;5045646;29;20112;-80
2022/01/06 10:53:11;;;;;;;0.52;0.52;;;;;;;3.61;86.04;101408.41;5052613;29;20168;-78
2022/01/06 10:55:43;;;;;;;2.72;1.52;;;;;;;3.63;86.27;101417.09;5048198;29;20053;-78
2022/01/06 10:58:19;;;;;;;1.42;1.35;;;;;;;3.64;85.73;101407.59;5152646;28;20039;-78
2022/01/06 11:00:56;;;;;;;0.88;0.88;;;;;;;3.72;85.98;101411.16;5064828;29;20315;-78
2022/01/06 11:03:29;;;;;;;0.40;0.40;;;;;;;3.73;85.85;101405.97;5047858;29;20505;-78
2022/01/06 11:06:01;;;;;;;;;;;;;;;3.70;85.57;101408.53;5075638;28;20505;-77
2022/01/06 11:08:40;;;;;;;1.63;1.52;;;;;;;3.73;85.35;101408.56;5071950;28;19969;-78
2022/01/06 11:13:45;;;;;;;0.50;0.50;;;;;;;3.97;85.47;101407.13;5069374;28;20104;-79
2022/01/06 11:16:18;;;;;;;0.85;0.85;;;;;;;3.86;85.25;101399.22;5052309;28;20141;-79
2022/01/06 11:18:57;;;;;;;7.07;3.72;;;;;;;3.89;85.38;101401.81;5152319;28;20034;-78
2022/01/06 11:21:37;;;;;;;0.70;0.70;;;;;;;3.90;85.39;101410.50;5062460;28;20040;-79
2022/01/06 11:24:14;;;;;;;2.35;2.25;;;;;;;3.93;85.27;101406.22;5055569;29;20155;-80
2022/01/06 11:26:58;;;;;;;1.25;1.15;;;;;;;3.92;84.43;101401.00;5126635;28;20489;-78
2022/01/06 11:29:34;;;;;;;0.93;0.93;;;;;;;3.95;85.48;101403.63;5124283;28;20040;-78
2022/01/06 11:32:17;;;;;;;1.40;1.35;;;;;;;4.04;84.78;101411.53;5049965;28;20505;-79
2022/01/06 11:35:04;;;;;;;0.50;0.50;;;;;;;4.06;84.84;101414.13;5121490;28;20509;-79
2022/01/06 11:37:52;;;;;;;0.98;0.98;;;;;;;4.05;85.20;101418.47;5058361;29;20068;-77
2022/01/06 11:40:33;;;;;;;15.45;2.70;;;;;;;4.02;84.95;101414.97;5036825;28;20421;-79
2022/01/06 11:43:03;;;;;;;0.60;0.60;;;;;;;4.04;84.78;101416.72;5069144;28;20036;-78
2022/01/06 11:45:34;;;;;;;0.80;0.80;;;;;;;4.05;85.48;101420.19;5048936;28;20432;-77
2022/01/06 11:48:07;;;;;;;0.60;0.60;;;;;;;4.03;85.85;101417.56;5054804;28;20388;-77
2022/01/06 11:50:40;;;;;;;1.10;1.08;;;;;;;4.04;84.15;101418.47;5059831;28;20040;-78
2022/01/06 11:53:11;;;;;;;0.70;0.70;;;;;;;4.02;84.85;101409.78;5038380;28;20056;-78
2022/01/06 11:55:46;;;;;;;0.73;0.73;;;;;;;4.04;84.80;101410.66;5081007;28;20125;-78
2022/01/06 11:58:21;;;;;;;1.98;1.88;;;;;;;4.12;85.12;101419.41;5051162;28;20048;-78
2022/01/06 12:00:58;;;;;;;2.65;1.70;;;;;;;4.07;84.98;101416.75;5077612;29;20566;-79
2022/01/06 12:03:37;;;;;;;0.70;0.70;;;;;;;4.07;85.37;101419.34;5060207;28;20147;-78
2022/01/06 12:06:09;;;;;;;0.80;0.80;;;;;;;4.05;85.44;101420.19;5044871;28;20102;-78
2022/01/06 12:08:42;;;;;;;24.07;1.83;;;;;;;4.09;84.56;101419.38;5054923;28;20056;-80
2022/01/06 12:11:21;;;;;;;0.80;0.80;;;;;;;4.16;85.02;101412.53;5069574;28;20281;-79